createdAt,value
2023-03-22T00:01:58.752Z,20.30
2023-03-22T00:04:26.410Z,22.33
2023-03-22T00:06:53.899Z,22.23
2023-03-22T00:09:22.738Z,22.40
2023-03-22T00:11:51.103Z,21.65
2023-03-22T00:14:18.695Z,23.75
2023-03-22T00:16:49.260Z,22.75
2023-03-22T00:19:17.494Z,22.38
2023-03-22T00:21:45.207Z,22.73
2023-03-22T00:24:14.080Z,20.50
2023-03-22T00:26:42.988Z,21.80
2023-03-22T00:29:10.470Z,23.10
2023-03-22T00:31:38.001Z,21.85
2023-03-22T00:34:05.642Z,24.05
2023-03-22T00:36:33.148Z,25.17
2023-03-22T00:39:00.724Z,24.35
2023-03-22T00:41:28.201Z,23.52
2023-03-22T00:43:57.072Z,24.60
2023-03-22T00:46:24.690Z,23.98
2023-03-22T00:48:52.397Z,23.42
2023-03-22T00:51:19.881Z,23.77
2023-03-22T00:53:49.657Z,25.73
2023-03-22T00:56:17.197Z,25.77
2023-03-22T00:58:44.671Z,23.52
2023-03-22T01:01:14.511Z,23.05
2023-03-22T01:03:43.102Z,23.40
2023-03-22T01:06:11.098Z,23.75
2023-03-22T01:08:39.145Z,22.02
2023-03-22T01:11:07.939Z,22.30
2023-03-22T01:13:37.519Z,21.08
2023-03-22T01:16:05.690Z,22.23
2023-03-22T01:18:34.834Z,21.98
2023-03-22T01:21:02.567Z,23.25
2023-03-22T01:23:30.573Z,22.02
2023-03-22T01:25:58.036Z,21.98
2023-03-22T01:28:27.167Z,21.92
2023-03-22T01:30:55.201Z,22.35
2023-03-22T01:33:22.985Z,21.27
2023-03-22T01:35:51.809Z,22.25
2023-03-22T01:38:19.364Z,22.42
2023-03-22T01:40:46.951Z,21.13
2023-03-22T01:43:15.969Z,22.85
2023-03-22T01:45:45.787Z,20.85
2023-03-22T01:48:21.128Z,21.50
2023-03-22T01:50:57.401Z,21.40
2023-03-22T01:53:25.780Z,21.52
2023-03-22T01:55:54.873Z,21.08
2023-03-22T01:58:22.374Z,20.33
2023-03-22T02:00:51.141Z,20.63
2023-03-22T02:03:21.562Z,22.05
2023-03-22T02:05:49.121Z,21.58
2023-03-22T02:08:18.092Z,23.80
2023-03-22T02:10:45.705Z,22.75
2023-03-22T02:13:25.376Z,22.45
2023-03-22T02:16:02.226Z,21.60
2023-03-22T02:18:41.842Z,21.92
2023-03-22T02:21:38.868Z,21.35
2023-03-22T02:24:36.501Z,21.33
2023-03-22T02:27:36.838Z,21.88
2023-03-22T02:30:21.628Z,23.75
2023-03-22T02:33:13.640Z,23.73
2023-03-22T02:35:50.103Z,23.10
2023-03-22T02:38:25.905Z,23.52
2023-03-22T02:41:01.006Z,22.88
2023-03-22T02:43:38.471Z,22.50
2023-03-22T02:46:09.769Z,22.83
2023-03-22T02:48:41.596Z,24.13
2023-03-22T02:53:43.377Z,21.92
2023-03-22T02:56:15.515Z,22.90
2023-03-22T02:58:46.795Z,23.02
2023-03-22T03:01:18.172Z,21.92
2023-03-22T03:03:48.175Z,23.05
2023-03-22T03:06:19.290Z,23.88
2023-03-22T03:08:50.729Z,23.38
2023-03-22T03:11:20.004Z,23.88
2023-03-22T03:13:48.671Z,20.92
2023-03-22T03:16:17.797Z,23.63
2023-03-22T03:18:48.919Z,22.50
2023-03-22T03:21:25.268Z,22.88
2023-03-22T03:23:56.061Z,21.60
2023-03-22T03:26:30.756Z,20.73
2023-03-22T03:29:01.046Z,21.42
2023-03-22T03:31:33.393Z,22.00
2023-03-22T03:34:07.964Z,22.08
2023-03-22T03:36:37.815Z,21.95
2023-03-22T03:39:08.091Z,22.42
2023-03-22T03:41:37.057Z,20.35
2023-03-22T03:44:05.264Z,22.08
2023-03-22T03:46:32.763Z,22.50
2023-03-22T03:49:00.450Z,23.58
2023-03-22T03:51:28.581Z,23.15
2023-03-22T03:53:56.072Z,22.23
2023-03-22T03:56:23.635Z,22.25
2023-03-22T03:58:52.382Z,22.00
2023-03-22T04:01:20.780Z,22.33
2023-03-22T04:03:50.810Z,23.95
2023-03-22T04:06:18.327Z,22.90
2023-03-22T04:08:46.444Z,20.65
2023-03-22T04:11:13.911Z,22.35
2023-03-22T04:13:41.352Z,21.77
2023-03-22T04:16:11.013Z,22.60
2023-03-22T04:18:38.734Z,21.45
2023-03-22T04:21:06.699Z,20.25
2023-03-22T04:23:34.156Z,21.05
2023-03-22T04:26:01.630Z,18.92
2023-03-22T04:28:29.080Z,20.23
2023-03-22T04:30:57.902Z,21.88
2023-03-22T04:33:26.787Z,19.92
2023-03-22T04:35:56.974Z,19.85
2023-03-22T04:38:26.007Z,20.42
2023-03-22T04:40:53.474Z,20.25
2023-03-22T04:43:21.100Z,20.33
2023-03-22T04:45:48.869Z,21.45
2023-03-22T04:48:17.551Z,20.60
2023-03-22T04:50:46.398Z,20.95
2023-03-22T04:53:13.884Z,19.67
2023-03-22T04:55:41.621Z,20.10
2023-03-22T04:58:09.389Z,20.73
2023-03-22T05:00:37.665Z,22.30
2023-03-22T05:03:05.856Z,21.48
2023-03-22T05:05:33.359Z,22.20
2023-03-22T05:08:02.132Z,21.73
2023-03-22T05:10:29.607Z,20.63
2023-03-22T05:12:57.035Z,21.48
2023-03-22T05:15:24.543Z,21.17
2023-03-22T05:17:52.048Z,21.17
2023-03-22T05:20:19.497Z,22.17
2023-03-22T05:22:50.694Z,22.02
2023-03-22T05:25:19.507Z,24.17
2023-03-22T05:27:47.013Z,23.33
2023-03-22T05:30:15.551Z,23.33
2023-03-22T05:32:43.829Z,23.17
2023-03-22T05:35:11.627Z,23.00
2023-03-22T05:37:39.135Z,23.42
2023-03-22T05:40:10.024Z,24.33
2023-03-22T05:42:39.004Z,22.65
2023-03-22T05:45:07.964Z,21.80
2023-03-22T05:47:36.310Z,22.42
2023-03-22T05:50:03.993Z,22.15
2023-03-22T05:52:32.020Z,21.13
2023-03-22T05:54:59.517Z,22.35
2023-03-22T05:57:29.989Z,21.75
2023-03-22T05:59:58.839Z,22.00
2023-03-22T06:02:27.117Z,20.33
2023-03-22T06:04:54.593Z,21.23
2023-03-22T06:07:22.046Z,22.48
2023-03-22T06:09:50.193Z,20.20
2023-03-22T06:12:18.605Z,21.98
2023-03-22T06:14:46.205Z,23.17
2023-03-22T06:17:15.151Z,21.77
2023-03-22T06:19:42.667Z,21.52
2023-03-22T06:22:10.242Z,21.85
2023-03-22T06:24:40.532Z,20.20
2023-03-22T06:27:08.252Z,20.88
2023-03-22T06:29:35.884Z,21.65
2023-03-22T06:32:03.772Z,19.58
2023-03-22T06:34:32.680Z,20.02
2023-03-22T06:37:00.795Z,20.40
2023-03-22T06:39:28.465Z,19.85
2023-03-22T06:41:56.102Z,20.10
2023-03-22T06:44:23.597Z,19.05
2023-03-22T06:46:51.245Z,19.40
2023-03-22T06:49:19.342Z,19.33
2023-03-22T06:51:48.217Z,20.80
2023-03-22T06:54:16.768Z,20.58
2023-03-22T06:56:44.270Z,19.13
2023-03-22T06:59:11.932Z,17.85
2023-03-22T07:01:39.408Z,19.08
2023-03-22T07:04:06.953Z,19.60
2023-03-22T07:06:34.499Z,18.15
2023-03-22T07:09:03.486Z,19.90
2023-03-22T07:11:31.052Z,18.58
2023-03-22T07:13:58.569Z,17.73
2023-03-22T07:16:26.382Z,17.02
2023-03-22T07:18:54.209Z,17.40
2023-03-22T07:21:21.710Z,17.55
2023-03-22T07:23:49.209Z,16.98
2023-03-22T07:26:18.030Z,16.23
2023-03-22T07:28:46.169Z,16.75
2023-03-22T07:31:14.690Z,15.85
2023-03-22T07:33:42.447Z,16.08
2023-03-22T07:36:11.037Z,15.00
2023-03-22T07:38:38.742Z,16.95
2023-03-22T07:41:07.151Z,15.90
2023-03-22T07:43:47.467Z,14.43
2023-03-22T07:46:20.319Z,15.15
2023-03-22T07:48:47.892Z,14.10
2023-03-22T07:51:15.318Z,14.30
2023-03-22T07:53:42.853Z,13.85
2023-03-22T07:56:10.749Z,13.25
2023-03-22T07:58:39.617Z,12.90
2023-03-22T08:01:09.112Z,11.98
2023-03-22T08:03:37.671Z,12.88
2023-03-22T08:06:08.074Z,11.75
2023-03-22T08:08:36.909Z,11.10
2023-03-22T08:11:04.731Z,11.63
2023-03-22T08:13:32.347Z,12.35
2023-03-22T08:16:01.742Z,12.20
2023-03-22T08:18:29.234Z,10.88
2023-03-22T08:20:58.052Z,11.30
2023-03-22T08:23:38.378Z,11.00
2023-03-22T08:26:08.360Z,10.40
2023-03-22T08:28:36.244Z,10.98
2023-03-22T08:31:13.267Z,10.48
2023-03-22T08:33:41.578Z,10.85
2023-03-22T08:36:12.148Z,10.57
2023-03-22T08:38:39.662Z,11.20
2023-03-22T08:41:07.210Z,10.65
2023-03-22T08:43:34.804Z,11.27
2023-03-22T08:46:02.424Z,10.82
2023-03-22T08:48:32.157Z,10.88
2023-03-22T08:50:59.685Z,10.00
2023-03-22T08:53:27.098Z,10.43
2023-03-22T08:55:58.052Z,10.35
2023-03-22T08:58:25.634Z,9.73
2023-03-22T09:00:53.168Z,8.45
2023-03-22T09:03:20.866Z,8.77
2023-03-22T09:05:49.640Z,10.00
2023-03-22T09:08:26.197Z,9.23
2023-03-22T09:10:53.677Z,9.70
2023-03-22T09:13:22.594Z,9.27
2023-03-22T09:15:51.809Z,9.60
2023-03-22T09:18:19.850Z,8.93
2023-03-22T09:20:48.676Z,8.95
2023-03-22T09:23:16.613Z,8.88
2023-03-22T09:25:44.199Z,9.02
2023-03-22T09:28:11.950Z,8.85
2023-03-22T09:30:39.981Z,8.85
2023-03-22T09:33:07.783Z,9.55
2023-03-22T09:35:35.277Z,9.05
2023-03-22T09:38:06.094Z,9.75
2023-03-22T09:40:36.436Z,7.82
2023-03-22T09:43:05.805Z,7.93
2023-03-22T09:45:38.514Z,8.73
2023-03-22T09:48:09.338Z,8.95
2023-03-22T09:50:41.445Z,9.10
2023-03-22T09:53:13.804Z,9.45
2023-03-22T09:55:44.685Z,8.77
2023-03-22T09:58:22.790Z,9.25
2023-03-22T10:00:53.894Z,9.05
2023-03-22T10:03:31.297Z,8.30
2023-03-22T10:06:01.532Z,8.60
2023-03-22T10:08:38.067Z,8.23
2023-03-22T10:11:13.999Z,9.18
2023-03-22T10:13:46.344Z,9.10
2023-03-22T10:16:20.804Z,8.70
2023-03-22T10:18:51.109Z,9.32
2023-03-22T10:21:19.622Z,8.55
2023-03-22T10:23:50.798Z,8.70
2023-03-22T10:26:21.607Z,8.35
2023-03-22T10:28:51.675Z,8.50
2023-03-22T10:31:21.343Z,8.82
2023-03-22T10:33:55.339Z,8.20
2023-03-22T10:36:26.311Z,8.07
2023-03-22T10:38:59.649Z,8.23
2023-03-22T10:41:28.898Z,7.88
2023-03-22T10:43:58.150Z,7.38
2023-03-22T10:46:29.147Z,8.20
2023-03-22T10:48:59.879Z,8.30
2023-03-22T10:51:31.088Z,7.45
2023-03-22T10:54:01.683Z,8.00
2023-03-22T10:56:29.376Z,6.78
2023-03-22T10:58:57.303Z,6.85
2023-03-22T11:01:31.478Z,7.07
2023-03-22T11:04:01.778Z,7.82
2023-03-22T11:06:32.893Z,6.00
2023-03-22T11:09:03.976Z,6.32
2023-03-22T11:11:35.952Z,6.15
2023-03-22T11:14:06.472Z,6.28
2023-03-22T11:16:42.298Z,5.40
2023-03-22T11:19:15.606Z,5.53
2023-03-22T11:21:44.058Z,5.28
2023-03-22T11:24:14.342Z,5.07
2023-03-22T11:26:42.084Z,4.80
2023-03-22T11:29:14.029Z,5.45
2023-03-22T11:31:58.469Z,5.32
2023-03-22T11:34:28.777Z,5.35
2023-03-22T11:36:57.620Z,5.03
2023-03-22T11:39:29.352Z,4.80
2023-03-22T11:42:01.503Z,5.10
2023-03-22T11:44:33.987Z,4.80
2023-03-22T11:47:03.111Z,5.85
2023-03-22T11:49:38.982Z,4.93
2023-03-22T11:52:12.124Z,5.57
2023-03-22T11:54:42.514Z,4.97
2023-03-22T11:57:15.014Z,5.65
2023-03-22T11:59:48.776Z,5.68
2023-03-22T12:02:21.565Z,5.72
2023-03-22T12:04:51.724Z,5.57
2023-03-22T12:07:24.477Z,5.82
2023-03-22T12:09:59.140Z,5.53
2023-03-22T12:12:31.301Z,5.30
2023-03-22T12:15:02.467Z,5.53
2023-03-22T12:17:34.801Z,5.78
2023-03-22T12:20:08.597Z,5.32
2023-03-22T12:22:40.016Z,4.68
2023-03-22T12:25:13.749Z,5.13
2023-03-22T12:27:43.452Z,4.90
2023-03-22T12:30:15.401Z,4.45
2023-03-22T12:32:45.028Z,3.85
2023-03-22T12:35:18.299Z,4.10
2023-03-22T12:37:47.567Z,4.15
2023-03-22T12:40:21.929Z,3.60
2023-03-22T12:43:00.068Z,3.22
2023-03-22T12:45:29.192Z,3.58
2023-03-22T12:47:59.375Z,3.25
2023-03-22T12:50:32.341Z,2.78
2023-03-22T12:53:02.304Z,3.00
2023-03-22T12:55:32.726Z,2.97
2023-03-22T12:58:00.802Z,2.90
2023-03-22T13:00:30.415Z,2.83
2023-03-22T13:03:01.324Z,2.80
2023-03-22T13:05:30.840Z,3.10
2023-03-22T13:08:03.543Z,3.67
2023-03-22T13:11:00.151Z,2.95
2023-03-22T13:13:41.104Z,2.65
2023-03-22T13:16:22.547Z,3.25
2023-03-22T13:19:19.680Z,2.40
2023-03-22T13:21:49.546Z,2.60
2023-03-22T13:24:23.352Z,2.40
2023-03-22T13:26:53.627Z,2.42
2023-03-22T13:29:24.473Z,2.28
2023-03-22T13:31:58.531Z,2.37
2023-03-22T13:34:38.134Z,2.30
2023-03-22T13:37:10.871Z,2.60
2023-03-22T13:39:40.800Z,2.47
2023-03-22T13:42:18.235Z,2.38
2023-03-22T13:44:47.157Z,2.60
2023-03-22T13:47:39.526Z,2.67
2023-03-22T13:50:16.041Z,2.90
2023-03-22T13:52:45.196Z,2.65
2023-03-22T13:55:37.218Z,2.50
2023-03-22T14:00:50.011Z,2.83
2023-03-22T14:03:24.384Z,2.10
2023-03-22T14:06:01.466Z,2.50
2023-03-22T14:08:30.157Z,2.20
2023-03-22T14:10:59.520Z,2.10
2023-03-22T14:13:33.105Z,2.10
2023-03-22T14:16:05.913Z,2.63
2023-03-22T14:18:34.541Z,2.47
2023-03-22T14:21:04.872Z,2.55
